sensor_id;sensor_type;location;lat;lon;timestamp;temperature;humidity
36186;DHT22;22228;53.222;7.446;2022-07-06T00:01:08;13.80;99.90
36186;DHT22;22228;53.222;7.446;2022-07-06T00:03:30;13.80;99.90
36186;DHT22;22228;53.222;7.446;2022-07-06T00:05:52;13.80;99.90
36186;DHT22;22228;53.222;7.446;2022-07-06T00:08:14;13.90;99.90
36186;DHT22;22228;53.222;7.446;2022-07-06T00:10:36;13.90;99.90
36186;DHT22;22228;53.222;7.446;2022-07-06T00:13:00;13.90;99.90
36186;DHT22;22228;53.222;7.446;2022-07-06T00:15:21;13.80;99.90
36186;DHT22;22228;53.222;7.446;2022-07-06T00:17:44;13.90;99.90
36186;DHT22;22228;53.222;7.446;2022-07-06T00:20:06;13.90;99.90
36186;DHT22;22228;53.222;7.446;2022-07-06T00:22:29;13.90;99.90
36186;DHT22;22228;53.222;7.446;2022-07-06T00:24:51;14.00;99.90
36186;DHT22;22228;53.222;7.446;2022-07-06T00:27:13;14.00;99.90
36186;DHT22;22228;53.222;7.446;2022-07-06T00:29:37;14.00;99.90
36186;DHT22;22228;53.222;7.446;2022-07-06T00:32:04;14.10;99.90
36186;DHT22;22228;53.222;7.446;2022-07-06T00:34:26;14.10;99.90
36186;DHT22;22228;53.222;7.446;2022-07-06T00:36:48;14.10;99.90
36186;DHT22;22228;53.222;7.446;2022-07-06T00:39:10;14.10;99.90
36186;DHT22;22228;53.222;7.446;2022-07-06T00:41:32;14.10;99.90
36186;DHT22;22228;53.222;7.446;2022-07-06T00:43:56;13.90;99.90
36186;DHT22;22228;53.222;7.446;2022-07-06T00:46:22;13.80;99.90
36186;DHT22;22228;53.222;7.446;2022-07-06T00:48:45;13.70;99.90
36186;DHT22;22228;53.222;7.446;2022-07-06T00:51:07;13.60;99.90
36186;DHT22;22228;53.222;7.446;2022-07-06T00:53:30;13.60;99.90
36186;DHT22;22228;53.222;7.446;2022-07-06T00:55:52;13.50;99.90
36186;DHT22;22228;53.222;7.446;2022-07-06T00:58:14;13.50;99.90
36186;DHT22;22228;53.222;7.446;2022-07-06T01:00:36;13.40;99.90
36186;DHT22;22228;53.222;7.446;2022-07-06T01:03:00;13.40;99.90
36186;DHT22;22228;53.222;7.446;2022-07-06T01:05:23;13.40;99.90
36186;DHT22;22228;53.222;7.446;2022-07-06T01:07:47;13.50;99.90
36186;DHT22;22228;53.222;7.446;2022-07-06T01:10:11;13.50;99.90
36186;DHT22;22228;53.222;7.446;2022-07-06T01:12:35;13.50;99.90
36186;DHT22;22228;53.222;7.446;2022-07-06T01:14:57;13.40;99.90
36186;DHT22;22228;53.222;7.446;2022-07-06T01:17:20;13.40;99.90
36186;DHT22;22228;53.222;7.446;2022-07-06T01:19:44;13.40;99.90
36186;DHT22;22228;53.222;7.446;2022-07-06T01:22:08;13.40;99.90
36186;DHT22;22228;53.222;7.446;2022-07-06T01:24:31;13.40;99.90
36186;DHT22;22228;53.222;7.446;2022-07-06T01:26:53;13.40;99.90
36186;DHT22;22228;53.222;7.446;2022-07-06T01:29:15;13.40;99.90
36186;DHT22;22228;53.222;7.446;2022-07-06T01:31:45;13.40;99.90
36186;DHT22;22228;53.222;7.446;2022-07-06T01:34:09;13.40;99.90
36186;DHT22;22228;53.222;7.446;2022-07-06T01:36:31;13.40;99.90
36186;DHT22;22228;53.222;7.446;2022-07-06T01:38:55;13.40;99.90
36186;DHT22;22228;53.222;7.446;2022-07-06T01:41:19;13.40;99.90
36186;DHT22;22228;53.222;7.446;2022-07-06T01:43:42;13.40;99.90
36186;DHT22;22228;53.222;7.446;2022-07-06T01:46:04;13.40;99.90
36186;DHT22;22228;53.222;7.446;2022-07-06T01:48:27;13.40;99.90
36186;DHT22;22228;53.222;7.446;2022-07-06T01:50:49;13.30;99.90
36186;DHT22;22228;53.222;7.446;2022-07-06T01:53:11;13.30;99.90
36186;DHT22;22228;53.222;7.446;2022-07-06T01:55:34;13.20;99.90
36186;DHT22;22228;53.222;7.446;2022-07-06T01:57:57;13.20;99.90
36186;DHT22;22228;53.222;7.446;2022-07-06T02:00:20;13.20;99.90
36186;DHT22;22228;53.222;7.446;2022-07-06T02:02:44;13.30;99.90
36186;DHT22;22228;53.222;7.446;2022-07-06T02:05:06;13.30;99.90
36186;DHT22;22228;53.222;7.446;2022-07-06T02:07:29;13.30;99.90
36186;DHT22;22228;53.222;7.446;2022-07-06T02:09:51;13.30;99.90
36186;DHT22;22228;53.222;7.446;2022-07-06T02:12:14;13.20;99.90
36186;DHT22;22228;53.222;7.446;2022-07-06T02:14:36;13.20;99.90
36186;DHT22;22228;53.222;7.446;2022-07-06T02:16:58;13.20;99.90
36186;DHT22;22228;53.222;7.446;2022-07-06T02:19:20;13.30;99.90
36186;DHT22;22228;53.222;7.446;2022-07-06T02:21:42;13.30;99.90
36186;DHT22;22228;53.222;7.446;2022-07-06T02:24:06;13.30;99.90
36186;DHT22;22228;53.222;7.446;2022-07-06T02:26:29;13.30;99.90
36186;DHT22;22228;53.222;7.446;2022-07-06T02:28:53;13.30;99.90
36186;DHT22;22228;53.222;7.446;2022-07-06T02:31:16;13.20;99.90
36186;DHT22;22228;53.222;7.446;2022-07-06T02:33:41;13.20;99.90
36186;DHT22;22228;53.222;7.446;2022-07-06T02:36:05;13.20;99.90
36186;DHT22;22228;53.222;7.446;2022-07-06T02:38:27;13.20;99.90
36186;DHT22;22228;53.222;7.446;2022-07-06T02:40:50;13.20;99.90
36186;DHT22;22228;53.222;7.446;2022-07-06T02:43:12;13.10;99.90
36186;DHT22;22228;53.222;7.446;2022-07-06T02:45:36;13.20;99.90
36186;DHT22;22228;53.222;7.446;2022-07-06T02:47:59;13.30;99.90
36186;DHT22;22228;53.222;7.446;2022-07-06T02:50:22;13.30;99.90
36186;DHT22;22228;53.222;7.446;2022-07-06T02:52:44;13.30;99.90
36186;DHT22;22228;53.222;7.446;2022-07-06T02:55:07;13.30;99.90
36186;DHT22;22228;53.222;7.446;2022-07-06T02:57:30;13.40;99.90
36186;DHT22;22228;53.222;7.446;2022-07-06T02:59:53;13.40;99.90
36186;DHT22;22228;53.222;7.446;2022-07-06T03:02:16;13.40;99.90
36186;DHT22;22228;53.222;7.446;2022-07-06T03:04:39;13.30;99.90
36186;DHT22;22228;53.222;7.446;2022-07-06T03:07:02;13.40;99.90
36186;DHT22;22228;53.222;7.446;2022-07-06T03:09:24;13.40;99.90
36186;DHT22;22228;53.222;7.446;2022-07-06T03:11:46;13.40;99.90
36186;DHT22;22228;53.222;7.446;2022-07-06T03:14:08;13.40;99.90
36186;DHT22;22228;53.222;7.446;2022-07-06T03:16:34;13.40;99.90
36186;DHT22;22228;53.222;7.446;2022-07-06T03:18:58;13.50;99.90
36186;DHT22;22228;53.222;7.446;2022-07-06T03:21:20;13.40;99.90
36186;DHT22;22228;53.222;7.446;2022-07-06T03:23:43;13.40;99.90
36186;DHT22;22228;53.222;7.446;2022-07-06T03:26:05;13.40;99.90
36186;DHT22;22228;53.222;7.446;2022-07-06T03:28:27;13.40;99.90
36186;DHT22;22228;53.222;7.446;2022-07-06T03:30:50;13.40;99.90
36186;DHT22;22228;53.222;7.446;2022-07-06T03:33:12;13.30;99.90
36186;DHT22;22228;53.222;7.446;2022-07-06T03:35:36;13.40;99.90
36186;DHT22;22228;53.222;7.446;2022-07-06T03:38:00;13.40;99.90
36186;DHT22;22228;53.222;7.446;2022-07-06T03:40:24;13.40;99.90
36186;DHT22;22228;53.222;7.446;2022-07-06T03:42:47;13.30;99.90
36186;DHT22;22228;53.222;7.446;2022-07-06T03:45:10;13.40;99.90
36186;DHT22;22228;53.222;7.446;2022-07-06T03:47:34;13.40;99.90
36186;DHT22;22228;53.222;7.446;2022-07-06T03:49:56;13.40;99.90
36186;DHT22;22228;53.222;7.446;2022-07-06T03:52:20;13.50;99.90
36186;DHT22;22228;53.222;7.446;2022-07-06T03:54:47;13.50;99.90
36186;DHT22;22228;53.222;7.446;2022-07-06T03:57:15;13.50;99.90
36186;DHT22;22228;53.222;7.446;2022-07-06T03:59:37;13.50;99.90
36186;DHT22;22228;53.222;7.446;2022-07-06T04:01:59;13.50;99.90
36186;DHT22;22228;53.222;7.446;2022-07-06T04:04:22;13.50;99.90
36186;DHT22;22228;53.222;7.446;2022-07-06T04:06:44;13.40;99.90
36186;DHT22;22228;53.222;7.446;2022-07-06T04:09:08;13.40;99.90
36186;DHT22;22228;53.222;7.446;2022-07-06T04:11:31;13.40;99.90
36186;DHT22;22228;53.222;7.446;2022-07-06T04:13:52;13.40;99.90
36186;DHT22;22228;53.222;7.446;2022-07-06T04:16:16;13.40;99.90
36186;DHT22;22228;53.222;7.446;2022-07-06T04:18:39;13.30;99.90
36186;DHT22;22228;53.222;7.446;2022-07-06T04:21:01;13.30;99.90
36186;DHT22;22228;53.222;7.446;2022-07-06T04:23:25;13.30;99.90
36186;DHT22;22228;53.222;7.446;2022-07-06T04:25:50;13.30;99.90
36186;DHT22;22228;53.222;7.446;2022-07-06T04:28:13;13.30;99.90
36186;DHT22;22228;53.222;7.446;2022-07-06T04:30:35;13.30;99.90
36186;DHT22;22228;53.222;7.446;2022-07-06T04:33:01;13.30;99.90
36186;DHT22;22228;53.222;7.446;2022-07-06T04:35:25;13.40;99.90
36186;DHT22;22228;53.222;7.446;2022-07-06T04:37:48;13.40;99.90
36186;DHT22;22228;53.222;7.446;2022-07-06T04:40:14;13.50;99.90
36186;DHT22;22228;53.222;7.446;2022-07-06T04:42:41;13.60;99.90
36186;DHT22;22228;53.222;7.446;2022-07-06T04:45:05;13.60;99.90
36186;DHT22;22228;53.222;7.446;2022-07-06T04:47:27;13.60;99.90
36186;DHT22;22228;53.222;7.446;2022-07-06T04:49:49;13.60;99.90
36186;DHT22;22228;53.222;7.446;2022-07-06T04:52:12;13.60;99.90
36186;DHT22;22228;53.222;7.446;2022-07-06T04:54:34;13.60;99.90
36186;DHT22;22228;53.222;7.446;2022-07-06T04:56:57;13.60;99.90
36186;DHT22;22228;53.222;7.446;2022-07-06T04:59:20;13.60;99.90
36186;DHT22;22228;53.222;7.446;2022-07-06T05:01:42;13.70;99.90
36186;DHT22;22228;53.222;7.446;2022-07-06T05:04:05;13.70;99.90
36186;DHT22;22228;53.222;7.446;2022-07-06T05:06:27;13.70;99.90
36186;DHT22;22228;53.222;7.446;2022-07-06T05:08:49;13.80;99.90
36186;DHT22;22228;53.222;7.446;2022-07-06T05:11:11;13.80;99.90
36186;DHT22;22228;53.222;7.446;2022-07-06T05:13:35;13.90;99.90
36186;DHT22;22228;53.222;7.446;2022-07-06T05:15:58;13.90;99.90
36186;DHT22;22228;53.222;7.446;2022-07-06T05:18:21;13.90;99.90
36186;DHT22;22228;53.222;7.446;2022-07-06T05:20:44;13.90;99.90
36186;DHT22;22228;53.222;7.446;2022-07-06T05:23:06;14.00;99.90
36186;DHT22;22228;53.222;7.446;2022-07-06T05:25:28;14.10;99.90
36186;DHT22;22228;53.222;7.446;2022-07-06T05:27:51;14.20;99.90
36186;DHT22;22228;53.222;7.446;2022-07-06T05:30:13;14.20;99.90
36186;DHT22;22228;53.222;7.446;2022-07-06T05:32:38;14.20;99.90
36186;DHT22;22228;53.222;7.446;2022-07-06T05:35:00;14.20;99.90
36186;DHT22;22228;53.222;7.446;2022-07-06T05:37:43;14.20;99.90
36186;DHT22;22228;53.222;7.446;2022-07-06T05:40:06;14.20;99.90
36186;DHT22;22228;53.222;7.446;2022-07-06T05:42:29;14.20;99.90
36186;DHT22;22228;53.222;7.446;2022-07-06T05:44:54;14.20;99.90
36186;DHT22;22228;53.222;7.446;2022-07-06T05:47:19;14.20;99.90
36186;DHT22;22228;53.222;7.446;2022-07-06T05:50:00;14.30;99.90
36186;DHT22;22228;53.222;7.446;2022-07-06T05:52:55;14.30;99.90
36186;DHT22;22228;53.222;7.446;2022-07-06T05:55:18;14.30;99.90
36186;DHT22;22228;53.222;7.446;2022-07-06T05:57:39;14.30;99.90
36186;DHT22;22228;53.222;7.446;2022-07-06T06:00:02;14.40;99.90
36186;DHT22;22228;53.222;7.446;2022-07-06T06:02:24;14.40;99.90
36186;DHT22;22228;53.222;7.446;2022-07-06T06:04:47;14.40;99.90
36186;DHT22;22228;53.222;7.446;2022-07-06T06:07:10;14.40;99.90
36186;DHT22;22228;53.222;7.446;2022-07-06T06:09:32;14.40;99.90
36186;DHT22;22228;53.222;7.446;2022-07-06T06:11:54;14.50;99.90
36186;DHT22;22228;53.222;7.446;2022-07-06T06:14:18;14.50;99.90
36186;DHT22;22228;53.222;7.446;2022-07-06T06:16:40;14.50;99.90
36186;DHT22;22228;53.222;7.446;2022-07-06T06:19:02;14.50;99.90
36186;DHT22;22228;53.222;7.446;2022-07-06T06:21:24;14.50;99.90
36186;DHT22;22228;53.222;7.446;2022-07-06T06:23:47;14.50;99.90
36186;DHT22;22228;53.222;7.446;2022-07-06T06:26:09;14.50;99.90
36186;DHT22;22228;53.222;7.446;2022-07-06T06:28:32;14.50;99.90
36186;DHT22;22228;53.222;7.446;2022-07-06T06:30:54;14.50;99.90
36186;DHT22;22228;53.222;7.446;2022-07-06T06:33:18;14.50;99.90
36186;DHT22;22228;53.222;7.446;2022-07-06T06:35:42;14.50;99.90
36186;DHT22;22228;53.222;7.446;2022-07-06T06:38:05;14.50;99.90
36186;DHT22;22228;53.222;7.446;2022-07-06T06:40:28;14.50;99.90
36186;DHT22;22228;53.222;7.446;2022-07-06T06:42:50;14.60;99.90
36186;DHT22;22228;53.222;7.446;2022-07-06T06:45:13;14.60;99.90
36186;DHT22;22228;53.222;7.446;2022-07-06T06:47:35;14.60;99.90
36186;DHT22;22228;53.222;7.446;2022-07-06T06:49:57;14.60;99.90
36186;DHT22;22228;53.222;7.446;2022-07-06T06:52:19;14.70;99.90
36186;DHT22;22228;53.222;7.446;2022-07-06T06:55:00;14.70;99.90
36186;DHT22;22228;53.222;7.446;2022-07-06T06:57:23;14.70;99.90
36186;DHT22;22228;53.222;7.446;2022-07-06T06:59:45;14.70;99.90
36186;DHT22;22228;53.222;7.446;2022-07-06T07:02:07;14.70;99.90
36186;DHT22;22228;53.222;7.446;2022-07-06T07:04:29;14.60;99.90
36186;DHT22;22228;53.222;7.446;2022-07-06T07:06:51;14.70;99.90
36186;DHT22;22228;53.222;7.446;2022-07-06T07:09:16;14.70;99.90
36186;DHT22;22228;53.222;7.446;2022-07-06T07:11:38;14.70;99.90
36186;DHT22;22228;53.222;7.446;2022-07-06T07:14:02;14.60;99.90
36186;DHT22;22228;53.222;7.446;2022-07-06T07:16:24;14.50;99.90
36186;DHT22;22228;53.222;7.446;2022-07-06T07:18:46;14.50;99.90
36186;DHT22;22228;53.222;7.446;2022-07-06T07:21:08;14.50;99.90
36186;DHT22;22228;53.222;7.446;2022-07-06T07:23:30;14.60;99.90
36186;DHT22;22228;53.222;7.446;2022-07-06T07:25:53;14.70;99.90
36186;DHT22;22228;53.222;7.446;2022-07-06T07:28:15;14.80;99.90
36186;DHT22;22228;53.222;7.446;2022-07-06T07:30:38;14.90;99.90
36186;DHT22;22228;53.222;7.446;2022-07-06T07:33:01;15.10;99.90
36186;DHT22;22228;53.222;7.446;2022-07-06T07:35:23;15.20;99.90
36186;DHT22;22228;53.222;7.446;2022-07-06T07:37:45;15.20;99.90
36186;DHT22;22228;53.222;7.446;2022-07-06T07:40:07;15.30;99.90
36186;DHT22;22228;53.222;7.446;2022-07-06T07:42:30;15.30;99.90
36186;DHT22;22228;53.222;7.446;2022-07-06T07:44:52;15.30;99.90
36186;DHT22;22228;53.222;7.446;2022-07-06T07:47:16;15.30;99.90
36186;DHT22;22228;53.222;7.446;2022-07-06T07:49:37;15.10;99.90
36186;DHT22;22228;53.222;7.446;2022-07-06T07:52:00;14.90;99.90
36186;DHT22;22228;53.222;7.446;2022-07-06T07:54:21;14.70;99.90
36186;DHT22;22228;53.222;7.446;2022-07-06T07:56:43;14.60;99.90
36186;DHT22;22228;53.222;7.446;2022-07-06T07:59:05;14.70;99.90
36186;DHT22;22228;53.222;7.446;2022-07-06T08:01:29;14.70;99.90
36186;DHT22;22228;53.222;7.446;2022-07-06T08:03:52;14.50;99.90
36186;DHT22;22228;53.222;7.446;2022-07-06T08:06:15;14.50;99.90
36186;DHT22;22228;53.222;7.446;2022-07-06T08:08:37;14.50;99.90
36186;DHT22;22228;53.222;7.446;2022-07-06T08:10:58;14.50;99.90
36186;DHT22;22228;53.222;7.446;2022-07-06T08:13:39;14.50;99.90
36186;DHT22;22228;53.222;7.446;2022-07-06T08:16:01;14.50;99.90
36186;DHT22;22228;53.222;7.446;2022-07-06T08:18:23;14.50;99.90
36186;DHT22;22228;53.222;7.446;2022-07-06T08:20:47;14.40;99.90
36186;DHT22;22228;53.222;7.446;2022-07-06T08:23:29;14.40;99.90
36186;DHT22;22228;53.222;7.446;2022-07-06T08:25:51;14.30;99.90
36186;DHT22;22228;53.222;7.446;2022-07-06T08:28:13;14.30;99.90
36186;DHT22;22228;53.222;7.446;2022-07-06T08:30:34;14.40;99.90
36186;DHT22;22228;53.222;7.446;2022-07-06T08:32:56;14.50;99.90
36186;DHT22;22228;53.222;7.446;2022-07-06T08:35:28;14.70;99.90
36186;DHT22;22228;53.222;7.446;2022-07-06T08:37:52;14.90;99.90
36186;DHT22;22228;53.222;7.446;2022-07-06T08:40:13;15.10;99.90
36186;DHT22;22228;53.222;7.446;2022-07-06T08:42:36;15.20;99.90
36186;DHT22;22228;53.222;7.446;2022-07-06T08:44:59;15.20;99.90
36186;DHT22;22228;53.222;7.446;2022-07-06T08:47:23;15.20;99.90
36186;DHT22;22228;53.222;7.446;2022-07-06T08:49:47;15.10;99.90
36186;DHT22;22228;53.222;7.446;2022-07-06T08:52:09;15.00;99.90
36186;DHT22;22228;53.222;7.446;2022-07-06T08:54:33;15.00;99.90
36186;DHT22;22228;53.222;7.446;2022-07-06T08:56:55;15.00;99.90
36186;DHT22;22228;53.222;7.446;2022-07-06T08:59:17;15.20;99.90
36186;DHT22;22228;53.222;7.446;2022-07-06T09:01:39;15.30;99.90
36186;DHT22;22228;53.222;7.446;2022-07-06T09:04:05;15.50;99.90
36186;DHT22;22228;53.222;7.446;2022-07-06T09:06:28;15.70;99.90
36186;DHT22;22228;53.222;7.446;2022-07-06T09:08:53;16.00;99.90
36186;DHT22;22228;53.222;7.446;2022-07-06T09:11:16;16.00;99.90
36186;DHT22;22228;53.222;7.446;2022-07-06T09:13:38;16.00;99.90
36186;DHT22;22228;53.222;7.446;2022-07-06T09:16:09;16.00;99.90
36186;DHT22;22228;53.222;7.446;2022-07-06T09:18:51;15.90;99.90
36186;DHT22;22228;53.222;7.446;2022-07-06T09:21:22;16.00;99.90
36186;DHT22;22228;53.222;7.446;2022-07-06T09:23:46;16.00;99.90
36186;DHT22;22228;53.222;7.446;2022-07-06T09:26:08;16.10;99.90
36186;DHT22;22228;53.222;7.446;2022-07-06T09:28:41;16.30;99.90
36186;DHT22;22228;53.222;7.446;2022-07-06T09:31:07;16.50;99.90
36186;DHT22;22228;53.222;7.446;2022-07-06T09:33:36;16.90;99.90
36186;DHT22;22228;53.222;7.446;2022-07-06T09:35:58;17.20;99.90
36186;DHT22;22228;53.222;7.446;2022-07-06T09:38:26;17.40;99.90
36186;DHT22;22228;53.222;7.446;2022-07-06T09:40:49;17.60;99.90
36186;DHT22;22228;53.222;7.446;2022-07-06T09:43:14;17.50;99.90
36186;DHT22;22228;53.222;7.446;2022-07-06T09:45:38;17.40;99.90
36186;DHT22;22228;53.222;7.446;2022-07-06T09:48:06;17.30;99.90
36186;DHT22;22228;53.222;7.446;2022-07-06T09:50:28;17.00;99.90
36186;DHT22;22228;53.222;7.446;2022-07-06T09:52:54;17.10;99.90
36186;DHT22;22228;53.222;7.446;2022-07-06T09:55:17;17.20;99.90
36186;DHT22;22228;53.222;7.446;2022-07-06T09:57:39;17.30;99.90
36186;DHT22;22228;53.222;7.446;2022-07-06T10:00:01;17.40;99.90
36186;DHT22;22228;53.222;7.446;2022-07-06T10:02:33;17.50;99.90
36186;DHT22;22228;53.222;7.446;2022-07-06T10:04:56;17.60;99.90
36186;DHT22;22228;53.222;7.446;2022-07-06T10:07:18;17.60;99.90
36186;DHT22;22228;53.222;7.446;2022-07-06T10:09:42;17.70;99.90
36186;DHT22;22228;53.222;7.446;2022-07-06T10:12:05;17.90;99.90
36186;DHT22;22228;53.222;7.446;2022-07-06T10:14:32;17.80;99.90
36186;DHT22;22228;53.222;7.446;2022-07-06T10:16:55;17.80;99.90
36186;DHT22;22228;53.222;7.446;2022-07-06T10:19:20;17.90;99.90
36186;DHT22;22228;53.222;7.446;2022-07-06T10:21:44;18.10;99.90
36186;DHT22;22228;53.222;7.446;2022-07-06T10:24:08;18.20;99.90
36186;DHT22;22228;53.222;7.446;2022-07-06T10:26:32;18.30;99.90
36186;DHT22;22228;53.222;7.446;2022-07-06T10:28:55;18.50;99.90
36186;DHT22;22228;53.222;7.446;2022-07-06T10:31:20;18.40;99.90
36186;DHT22;22228;53.222;7.446;2022-07-06T10:33:42;18.50;99.90
36186;DHT22;22228;53.222;7.446;2022-07-06T10:36:07;18.70;99.90
36186;DHT22;22228;53.222;7.446;2022-07-06T10:38:32;18.80;99.90
36186;DHT22;22228;53.222;7.446;2022-07-06T10:41:02;18.90;99.90
36186;DHT22;22228;53.222;7.446;2022-07-06T10:43:31;18.70;99.90
36186;DHT22;22228;53.222;7.446;2022-07-06T10:45:53;18.60;99.90
36186;DHT22;22228;53.222;7.446;2022-07-06T10:48:16;18.80;99.90
36186;DHT22;22228;53.222;7.446;2022-07-06T10:50:39;18.90;99.90
36186;DHT22;22228;53.222;7.446;2022-07-06T10:53:10;19.20;99.90
36186;DHT22;22228;53.222;7.446;2022-07-06T10:55:35;19.60;99.90
36186;DHT22;22228;53.222;7.446;2022-07-06T10:57:57;19.70;99.90
36186;DHT22;22228;53.222;7.446;2022-07-06T11:00:19;19.90;99.90
36186;DHT22;22228;53.222;7.446;2022-07-06T11:02:41;19.90;99.90
36186;DHT22;22228;53.222;7.446;2022-07-06T11:05:10;19.90;99.90
36186;DHT22;22228;53.222;7.446;2022-07-06T11:07:48;20.00;99.90
36186;DHT22;22228;53.222;7.446;2022-07-06T11:10:12;19.90;99.90
36186;DHT22;22228;53.222;7.446;2022-07-06T11:12:36;19.90;99.90
36186;DHT22;22228;53.222;7.446;2022-07-06T11:14:58;20.00;99.90
36186;DHT22;22228;53.222;7.446;2022-07-06T11:17:23;19.90;99.90
36186;DHT22;22228;53.222;7.446;2022-07-06T11:19:49;20.50;99.90
36186;DHT22;22228;53.222;7.446;2022-07-06T11:22:15;21.00;99.90
36186;DHT22;22228;53.222;7.446;2022-07-06T11:24:39;20.90;99.90
36186;DHT22;22228;53.222;7.446;2022-07-06T11:27:03;21.10;99.90
36186;DHT22;22228;53.222;7.446;2022-07-06T11:29:28;20.80;99.90
36186;DHT22;22228;53.222;7.446;2022-07-06T11:31:52;20.50;99.90
36186;DHT22;22228;53.222;7.446;2022-07-06T11:34:18;21.00;99.90
36186;DHT22;22228;53.222;7.446;2022-07-06T11:36:41;21.40;99.90
36186;DHT22;22228;53.222;7.446;2022-07-06T11:39:07;21.90;99.90
36186;DHT22;22228;53.222;7.446;2022-07-06T11:41:29;22.00;99.90
36186;DHT22;22228;53.222;7.446;2022-07-06T11:43:52;22.00;99.90
36186;DHT22;22228;53.222;7.446;2022-07-06T11:46:20;21.10;99.90
36186;DHT22;22228;53.222;7.446;2022-07-06T11:48:45;21.60;99.90
36186;DHT22;22228;53.222;7.446;2022-07-06T11:51:07;21.60;99.90
36186;DHT22;22228;53.222;7.446;2022-07-06T11:53:29;21.20;99.90
36186;DHT22;22228;53.222;7.446;2022-07-06T11:55:51;21.40;99.90
36186;DHT22;22228;53.222;7.446;2022-07-06T11:58:14;20.80;99.90
36186;DHT22;22228;53.222;7.446;2022-07-06T12:00:37;20.40;99.90
36186;DHT22;22228;53.222;7.446;2022-07-06T12:03:03;20.00;99.90
36186;DHT22;22228;53.222;7.446;2022-07-06T12:05:29;20.60;99.90
36186;DHT22;22228;53.222;7.446;2022-07-06T12:08:03;21.50;99.90
36186;DHT22;22228;53.222;7.446;2022-07-06T12:10:31;22.00;99.90
36186;DHT22;22228;53.222;7.446;2022-07-06T12:13:02;22.70;99.90
36186;DHT22;22228;53.222;7.446;2022-07-06T12:15:27;22.60;99.90
36186;DHT22;22228;53.222;7.446;2022-07-06T12:17:50;21.70;99.90
36186;DHT22;22228;53.222;7.446;2022-07-06T12:20:12;21.30;99.90
36186;DHT22;22228;53.222;7.446;2022-07-06T12:22:34;21.60;99.90
36186;DHT22;22228;53.222;7.446;2022-07-06T12:24:56;22.50;99.90
36186;DHT22;22228;53.222;7.446;2022-07-06T12:27:25;23.20;99.90
36186;DHT22;22228;53.222;7.446;2022-07-06T12:29:49;22.90;99.90
36186;DHT22;22228;53.222;7.446;2022-07-06T12:32:15;23.60;99.90
36186;DHT22;22228;53.222;7.446;2022-07-06T12:34:40;23.10;99.90
36186;DHT22;22228;53.222;7.446;2022-07-06T12:37:06;23.50;99.90
36186;DHT22;22228;53.222;7.446;2022-07-06T12:39:29;24.40;99.90
36186;DHT22;22228;53.222;7.446;2022-07-06T12:41:52;24.50;99.90
36186;DHT22;22228;53.222;7.446;2022-07-06T12:44:17;23.70;99.90
36186;DHT22;22228;53.222;7.446;2022-07-06T12:46:40;22.90;99.90
36186;DHT22;22228;53.222;7.446;2022-07-06T12:49:11;21.60;99.90
36186;DHT22;22228;53.222;7.446;2022-07-06T12:51:53;21.10;99.90
36186;DHT22;22228;53.222;7.446;2022-07-06T12:54:16;20.80;99.90
36186;DHT22;22228;53.222;7.446;2022-07-06T12:56:57;22.00;99.90
36186;DHT22;22228;53.222;7.446;2022-07-06T12:59:22;22.90;99.90
36186;DHT22;22228;53.222;7.446;2022-07-06T13:01:46;22.50;99.90
36186;DHT22;22228;53.222;7.446;2022-07-06T13:04:09;21.50;99.90
36186;DHT22;22228;53.222;7.446;2022-07-06T13:06:32;21.20;99.90
36186;DHT22;22228;53.222;7.446;2022-07-06T13:08:56;22.10;99.90
36186;DHT22;22228;53.222;7.446;2022-07-06T13:11:17;21.80;99.90
36186;DHT22;22228;53.222;7.446;2022-07-06T13:13:43;21.80;99.90
36186;DHT22;22228;53.222;7.446;2022-07-06T13:16:06;22.00;99.90
36186;DHT22;22228;53.222;7.446;2022-07-06T13:18:28;23.10;99.90
36186;DHT22;22228;53.222;7.446;2022-07-06T13:20:50;23.10;99.90
36186;DHT22;22228;53.222;7.446;2022-07-06T13:23:12;22.20;99.90
36186;DHT22;22228;53.222;7.446;2022-07-06T13:25:35;21.60;99.90
36186;DHT22;22228;53.222;7.446;2022-07-06T13:27:57;21.50;99.90
36186;DHT22;22228;53.222;7.446;2022-07-06T13:30:19;21.40;99.90
36186;DHT22;22228;53.222;7.446;2022-07-06T13:32:41;21.50;99.90
36186;DHT22;22228;53.222;7.446;2022-07-06T13:35:04;21.50;99.90
36186;DHT22;22228;53.222;7.446;2022-07-06T13:37:26;21.50;99.90
36186;DHT22;22228;53.222;7.446;2022-07-06T13:39:48;21.40;99.90
36186;DHT22;22228;53.222;7.446;2022-07-06T13:42:11;21.50;99.90
36186;DHT22;22228;53.222;7.446;2022-07-06T13:44:33;22.10;99.90
36186;DHT22;22228;53.222;7.446;2022-07-06T13:46:55;22.60;99.90
36186;DHT22;22228;53.222;7.446;2022-07-06T13:49:17;22.60;99.90
36186;DHT22;22228;53.222;7.446;2022-07-06T13:51:39;22.80;99.90
36186;DHT22;22228;53.222;7.446;2022-07-06T13:54:02;23.90;99.90
36186;DHT22;22228;53.222;7.446;2022-07-06T13:56:24;23.40;99.90
36186;DHT22;22228;53.222;7.446;2022-07-06T13:58:48;23.90;99.90
36186;DHT22;22228;53.222;7.446;2022-07-06T14:01:10;24.00;99.90
36186;DHT22;22228;53.222;7.446;2022-07-06T14:03:41;23.60;99.90
36186;DHT22;22228;53.222;7.446;2022-07-06T14:06:04;23.10;99.90
36186;DHT22;22228;53.222;7.446;2022-07-06T14:08:28;22.60;99.90
36186;DHT22;22228;53.222;7.446;2022-07-06T14:10:50;22.30;99.90
36186;DHT22;22228;53.222;7.446;2022-07-06T14:13:12;22.00;99.90
36186;DHT22;22228;53.222;7.446;2022-07-06T14:15:41;21.30;99.90
36186;DHT22;22228;53.222;7.446;2022-07-06T14:18:03;20.90;99.90
36186;DHT22;22228;53.222;7.446;2022-07-06T14:20:25;20.60;99.90
36186;DHT22;22228;53.222;7.446;2022-07-06T14:22:47;20.50;99.90
36186;DHT22;22228;53.222;7.446;2022-07-06T14:25:09;20.30;99.90
36186;DHT22;22228;53.222;7.446;2022-07-06T14:27:31;20.20;99.90
36186;DHT22;22228;53.222;7.446;2022-07-06T14:29:53;20.30;99.90
36186;DHT22;22228;53.222;7.446;2022-07-06T14:32:16;20.40;99.90
36186;DHT22;22228;53.222;7.446;2022-07-06T14:34:38;20.40;99.90
36186;DHT22;22228;53.222;7.446;2022-07-06T14:37:00;20.30;99.90
36186;DHT22;22228;53.222;7.446;2022-07-06T14:39:22;20.20;99.90
36186;DHT22;22228;53.222;7.446;2022-07-06T14:41:44;20.10;99.90
36186;DHT22;22228;53.222;7.446;2022-07-06T14:44:06;20.10;99.90
36186;DHT22;22228;53.222;7.446;2022-07-06T14:46:30;19.90;99.90
36186;DHT22;22228;53.222;7.446;2022-07-06T14:48:53;19.80;99.90
36186;DHT22;22228;53.222;7.446;2022-07-06T14:51:15;19.70;99.90
36186;DHT22;22228;53.222;7.446;2022-07-06T14:53:37;19.60;99.90
36186;DHT22;22228;53.222;7.446;2022-07-06T14:55:59;19.50;99.90
36186;DHT22;22228;53.222;7.446;2022-07-06T14:58:21;19.40;99.90
36186;DHT22;22228;53.222;7.446;2022-07-06T15:00:45;19.20;99.90
36186;DHT22;22228;53.222;7.446;2022-07-06T15:03:07;19.10;99.90
36186;DHT22;22228;53.222;7.446;2022-07-06T15:05:30;19.10;99.90
36186;DHT22;22228;53.222;7.446;2022-07-06T15:07:53;19.10;99.90